Flight Number: EUR1154 Duration: 1:00
Departure: Budapest Ferihegy (LHBP) at 08:15 Distance: 343 Nm
Arrival: Skopje Airport (LWSK) at 09:15 Equipment: A321

Weather Information
Budapest / Ferihegy, Hungary (LHBP) 47-26N 019-16E 185M Nov 19, 2017 - 10:30 PM EST / 2017.11.20 0330 UTC
Wind: from the SW (230 degrees) at 9 MPH (8 KT):0
Visibility: greater than 7 mile(s):0
Sky conditions: partly cloudy Temperature: 35 F (2 C)
Windchill: 28 F (-2 C):1 Dew Point: 32 F (0 C) Relative Humidity: 86% Pressure (altimeter): 29.91 in. Hg (1013 hPa)
ob: LHBP 200330Z 23008KT 9999 SCT049 SCT180 02/M00 Q1013 NOSIG cycle: 3
Sunrise: 05:59 Sunset: 14:57 (UTC)

Skopje-Petrovec, Macedonia, The Republic of (LWSK) 41-58N 021-39E 239M Nov 19, 2017 - 10:30 PM EST / 2017.11.20 0330 UTC
Wind: from the NW (310 degrees) at 5 MPH (4 KT) (direction variable):0
Visibility: greater than 7 mile(s):0
Sky conditions: mostly cloudy Temperature: 41 F (5 C) Dew Point: 33 F (1 C) Relative Humidity: 75% Pressure (altimeter): 29.94 in. Hg (1014 hPa)
ob: LWSK 200330Z 31004KT 270V330 9999 SCT040 BKN090 05/01 Q1014 NOSIG cycle: 3
Sunrise: 05:33 Sunset: 15:04 (UTC)

TAF:2017/11/20 03:58 TAF LWSK 200230Z 2003/2103 27008KT 9999 FEW015 BKN035 BKN080 TEMPO 2003/2007 RA BKN020 OVC035 BECMG 2006/2008 34012G30KT BKN040

Previous Pireps for this route
Date Aircraft Flight time Fuel used Landing rate On time
2012-09-09A32101.34-9115-1105No
2012-09-28A32101.1610170-273Yes
2012-10-26A32101.4910150-574Charter
2013-02-09A32101.2411588-164Yes
2013-08-19A3211.0080000No
2013-09-30A32101.3511762-273No
2014-05-12A32101.168038-238Yes
2014-11-15A3211.1377700Yes
2014-11-15A3211.1377700No
2015-04-02A32101.107459-425No
2016-05-21A3211,0060000Yes
2016-12-27A3211.1189460No
(pireps marked green are flown by you)

Route map